gordon.dewis.ca - Random musings from Gordon

Subscribe

Can you spot the warm front?

January 11, 2013 @ 09:55 By: gordon Category: General

XFT radar - 20130111 0940L

It looks like we’re probably going to see some freezing rain beginning over the shortly before the lunch hour and continuing to mid-afternoon:

TAF CYOW 111438Z 1115/1212 09012KT P6SM BKN050 OVC140 TEMPO 1115/1116 P6SM -FZRA OVC050
FM111600 10012KT P6SM -FZRA SCT020 OVC050
FM112000 12010KT 4SM -RA BR BKN012 OVC025 PROB30 1120/1122 6SM -FZRA BR BKN025 OVC050
FM112200 13008KT 4SM -RA BR SCT007 OVC012 TEMPO 1204/1207 2SM -DZ BR BKN007 OVC012
FM120700 18007KT 2SM -DZ BR SCT003 OVC007
RMK NXT FCST BY 111800Z=

Hopefully, it won’t make the afternoon commute too treacherous.

Leave a Reply

CAPTCHA
*